A13 weather

Lake Clifton Airstrip
Lake Clifton, Western Australia, Australia

Public forecast

Using degrees Celsius for public forecast. Weather courtesy of forecast.io.

Closest aviation weather report (METAR) to Lake Clifton Airstrip

Closest report is Perth Jandakot Airport, 43.0 nm (79.6 km) NNE. Retrieved 2020/02/28 09:00 UTC (27 minutes ago):

YPJT 280900Z AUTO 05012KT 9999 // NCD 31/18 Q1006 RF000/0008

Closest aviation forecast (TAF) to Lake Clifton Airstrip

Forecast is more than 6 hours old.

Closest forecast is Perth Jandakot Airport, 43.0 nm (79.6 km) NNE. Retrieved 2020-02-28 00:00 UTC (9 hours ago):

TAF YPJT 272359Z 2800/2818 07020G35KT 9999 -SHRA SCT050 FM280300 05017G27KT CAVOK BECMG 2806/2808 34012KT CAVOK FM281100 27010KT 9999 SCT012 FM281300 27006KT 9999 BKN010 TEMPO 2800/2803 VRB25G45KT 2000 TSRA SCT015 SCT050CB TEMPO 2814/2818 2000 DZ BKN008 BKN020 PROB30 INTER 2803/2807 VRB25G45KT 2000 TSRA SCT015 SCT050CB